createdAt,value
2018-05-08T00:00:12.372Z,57.73
2018-05-08T00:00:52.767Z,57.83
2018-05-08T00:01:33.253Z,57.92
2018-05-08T00:02:13.715Z,57.35
2018-05-08T00:02:54.250Z,57.35
2018-05-08T00:03:34.768Z,57.15
2018-05-08T00:04:15.209Z,56.67
2018-05-08T00:04:55.698Z,57.45
2018-05-08T00:05:36.191Z,57.25
2018-05-08T00:06:16.688Z,57.06
2018-05-08T00:06:57.186Z,57.64
2018-05-08T00:07:37.623Z,57.73
2018-05-08T00:08:18.135Z,57.25
2018-05-08T00:08:58.648Z,57.73
2018-05-08T00:09:39.078Z,57.64
2018-05-08T00:10:19.593Z,57.92
2018-05-08T00:11:00.092Z,57.64
2018-05-08T00:11:40.535Z,57.73
2018-05-08T00:12:21.043Z,57.83
2018-05-08T00:13:01.560Z,57.64
2018-05-08T00:13:42.003Z,57.35
2018-05-08T00:14:22.485Z,57.15
2018-05-08T00:15:02.985Z,57.45
2018-05-08T00:15:43.493Z,57.45
2018-05-08T00:16:23.989Z,57.15
2018-05-08T00:17:04.486Z,57.64
2018-05-08T00:17:44.932Z,57.25
2018-05-08T00:18:25.486Z,57.45
2018-05-08T00:19:05.947Z,57.15
2018-05-08T00:19:46.444Z,57.35
2018-05-08T00:20:26.934Z,57.45
2018-05-08T00:21:07.428Z,57.35
2018-05-08T00:21:47.934Z,57.64
2018-05-08T00:22:28.586Z,57.83
2018-05-08T00:23:09.124Z,57.54
2018-05-08T00:23:49.568Z,57.54
2018-05-08T00:24:30.057Z,57.25
2018-05-08T00:25:10.502Z,57.15
2018-05-08T00:25:50.994Z,57.25
2018-05-08T00:26:31.657Z,57.92
2018-05-08T00:27:12.131Z,58.12
2018-05-08T00:27:52.645Z,57.92
2018-05-08T00:28:33.107Z,57.92
2018-05-08T00:29:13.627Z,57.92
2018-05-08T00:29:54.112Z,58.12
2018-05-08T00:30:34.594Z,58.12
2018-05-08T00:31:15.075Z,58.28
2018-05-08T00:31:55.835Z,58.37
2018-05-08T00:32:36.130Z,58.47
2018-05-08T00:33:16.665Z,58.37
2018-05-08T00:33:57.139Z,58.57
2018-05-08T00:34:37.591Z,58.57
2018-05-08T00:35:18.057Z,58.5
2018-05-08T00:35:58.553Z,58.31
2018-05-08T00:36:39.061Z,58.18
2018-05-08T00:37:19.537Z,58.09
2018-05-08T00:37:59.983Z,58.28
2018-05-08T00:38:40.484Z,58.67
2018-05-08T00:39:20.974Z,58.47
2018-05-08T00:40:01.500Z,58.37
2018-05-08T00:40:41.994Z,57.99
2018-05-08T00:41:22.538Z,58.37
2018-05-08T00:42:02.982Z,59.05
2018-05-08T00:42:43.531Z,58.86
2018-05-08T00:43:24.007Z,59.05
2018-05-08T00:44:04.472Z,59.44
2018-05-08T00:44:44.976Z,59.05
2018-05-08T00:45:25.510Z,59.05
2018-05-08T00:46:05.977Z,59.15
2018-05-08T00:46:46.522Z,59.05
2018-05-08T00:47:26.990Z,59.44
2018-05-08T00:48:07.492Z,59.15
2018-05-08T00:48:47.967Z,58.92
2018-05-08T00:49:28.464Z,59.44
2018-05-08T00:50:08.959Z,58.95
2018-05-08T00:50:49.411Z,59.15
2018-05-08T00:51:29.963Z,59.05
2018-05-08T00:52:10.455Z,58.95
2018-05-08T00:52:50.937Z,59.05
2018-05-08T00:53:31.483Z,59.05
2018-05-08T00:54:11.891Z,58.47
2018-05-08T00:54:52.401Z,58.18
2018-05-08T00:55:32.866Z,58.86
2018-05-08T00:56:13.402Z,58.18
2018-05-08T00:56:53.844Z,58.18
2018-05-08T00:57:34.391Z,58.28
2018-05-08T00:58:14.843Z,57.8
2018-05-08T00:58:55.320Z,58.09
2018-05-08T00:59:35.859Z,57.97
2018-05-08T01:00:16.334Z,58.06
2018-05-08T01:00:56.807Z,58.35
2018-05-08T01:01:37.319Z,58.83
2018-05-08T01:02:17.857Z,57.87
2018-05-08T01:02:58.369Z,58.15
2018-05-08T01:03:38.807Z,57.97
2018-05-08T01:04:19.301Z,57.87
2018-05-08T01:04:59.832Z,57.97
2018-05-08T01:05:40.298Z,57.87
2018-05-08T01:06:20.773Z,58.15
2018-05-08T01:07:01.307Z,58.25
2018-05-08T01:07:41.796Z,58.06
2018-05-08T01:08:22.259Z,58.06
2018-05-08T01:09:02.757Z,57.97
2018-05-08T01:09:43.313Z,57.97
2018-05-08T01:10:23.738Z,58.45
2018-05-08T01:11:04.218Z,58.45
2018-05-08T01:11:44.642Z,58.25
2018-05-08T01:12:25.141Z,57.87
2018-05-08T01:13:05.636Z,58.06
2018-05-08T01:13:46.107Z,58.35
2018-05-08T01:14:26.812Z,57.87
2018-05-08T01:15:07.337Z,58.15
2018-05-08T01:15:47.793Z,58.35
2018-05-08T01:16:28.268Z,58.35
2018-05-08T01:17:08.811Z,59.02
2018-05-08T01:17:49.229Z,58.83
2018-05-08T01:18:29.695Z,59.02
2018-05-08T01:19:10.197Z,58.92
2018-05-08T01:19:50.787Z,58.92
2018-05-08T01:20:31.222Z,58.25
2018-05-08T01:21:11.662Z,58.54
2018-05-08T01:21:52.211Z,58.35
2018-05-08T01:22:32.650Z,58.45
2018-05-08T01:23:13.163Z,57.87
2018-05-08T01:23:53.654Z,58.25
2018-05-08T01:24:34.155Z,57.87
2018-05-08T01:25:14.657Z,58.15
2018-05-08T01:25:55.355Z,57.87
2018-05-08T01:26:35.859Z,58.06
2018-05-08T01:27:16.383Z,57.97
2018-05-08T01:27:56.883Z,58.06
2018-05-08T01:28:37.381Z,57.87
2018-05-08T01:29:17.891Z,57.97
2018-05-08T01:29:58.380Z,57.68
2018-05-08T01:30:38.844Z,57.87
2018-05-08T01:31:19.292Z,57.97
2018-05-08T01:31:59.803Z,57.97
2018-05-08T01:32:40.258Z,57.68
2018-05-08T01:33:20.744Z,57.68
2018-05-08T01:34:01.290Z,57.87
2018-05-08T01:34:41.780Z,57.87
2018-05-08T01:35:22.226Z,57.97
2018-05-08T01:36:02.769Z,57.39
2018-05-08T01:36:43.323Z,57.39
2018-05-08T01:37:23.835Z,57.68
2018-05-08T01:38:04.321Z,57.77
2018-05-08T01:38:44.827Z,57.77
2018-05-08T01:39:25.336Z,57.97
2018-05-08T01:40:05.828Z,57.68
2018-05-08T01:40:46.317Z,57.77
2018-05-08T01:41:26.803Z,57.97
2018-05-08T01:42:07.286Z,57.87
2018-05-08T01:42:47.766Z,57.97
2018-05-08T01:43:28.255Z,57.77
2018-05-08T01:44:08.717Z,57.87
2018-05-08T01:44:49.202Z,57.97
2018-05-08T01:45:29.759Z,57.84
2018-05-08T01:46:10.232Z,57.93
2018-05-08T01:46:50.692Z,58.03
2018-05-08T01:47:31.192Z,57.93
2018-05-08T01:48:11.711Z,58.13
2018-05-08T01:48:52.157Z,57.93
2018-05-08T01:49:32.607Z,58.03
2018-05-08T01:50:13.113Z,58.32
2018-05-08T01:50:53.611Z,59.09
2018-05-08T01:51:34.095Z,58.89
2018-05-08T01:52:14.572Z,59.09
2018-05-08T01:52:55.071Z,58.8
2018-05-08T01:53:35.550Z,59.09
2018-05-08T01:54:16.013Z,58.42
2018-05-08T01:54:56.493Z,58.03
2018-05-08T01:55:37.002Z,58.7
2018-05-08T01:56:17.479Z,58.89
2018-05-08T01:56:57.945Z,58.7
2018-05-08T01:57:38.449Z,58.8
2018-05-08T01:58:18.902Z,59.09
2018-05-08T01:58:59.446Z,58.89
2018-05-08T01:59:39.891Z,58.99
2018-05-08T02:00:20.397Z,58.99
2018-05-08T02:01:00.891Z,58.99
2018-05-08T02:01:41.348Z,59.28
2018-05-08T02:02:22.228Z,58.99
2018-05-08T02:03:02.648Z,59.28
2018-05-08T02:03:43.167Z,59.19
2018-05-08T02:04:23.644Z,59.28
2018-05-08T02:05:04.102Z,59.19
2018-05-08T02:05:44.624Z,59.28
2018-05-08T02:06:25.139Z,59.38
2018-05-08T02:07:05.626Z,59.38
2018-05-08T02:07:46.047Z,59.28
2018-05-08T02:08:26.570Z,58.99
2018-05-08T02:09:07.008Z,58.89
2018-05-08T02:09:47.546Z,58.7
2018-05-08T02:10:28.050Z,59.19
2018-05-08T02:11:08.467Z,60.05
2018-05-08T02:11:49.007Z,59.28
2018-05-08T02:12:29.429Z,59.66
2018-05-08T02:13:10.023Z,59.28
2018-05-08T02:13:50.487Z,58.7
2018-05-08T02:14:31.017Z,59.28
2018-05-08T02:15:11.444Z,58.99
2018-05-08T02:15:51.965Z,58.99
2018-05-08T02:16:32.467Z,59.19
2018-05-08T02:17:12.913Z,59.66
2018-05-08T02:17:53.414Z,59.47
2018-05-08T02:18:33.876Z,60.02
2018-05-08T02:19:14.375Z,60.21
2018-05-08T02:19:54.820Z,60.05
2018-05-08T02:20:35.320Z,59.95
2018-05-08T02:21:15.809Z,59.66
2018-05-08T02:21:56.277Z,59.57
2018-05-08T02:22:36.772Z,59.86
2018-05-08T02:23:17.223Z,59.38
2018-05-08T02:23:57.724Z,59.38
2018-05-08T02:24:38.197Z,59.28
2018-05-08T02:25:18.716Z,59.28
2018-05-08T02:25:59.270Z,58.89
2018-05-08T02:26:39.669Z,59.09
2018-05-08T02:27:20.211Z,59.28
2018-05-08T02:28:00.671Z,59.28
2018-05-08T02:28:41.175Z,58.99
2018-05-08T02:29:21.638Z,59.09
2018-05-08T02:30:02.101Z,59.38
2018-05-08T02:30:42.615Z,59.28
2018-05-08T02:31:23.072Z,59.64
2018-05-08T02:32:03.566Z,60.21
2018-05-08T02:32:44.055Z,60.02
2018-05-08T02:33:24.559Z,59.92
2018-05-08T02:34:05.061Z,60.11
2018-05-08T02:34:45.534Z,60.02
2018-05-08T02:35:26.039Z,59.92
2018-05-08T02:36:06.506Z,59.92
2018-05-08T02:36:47.019Z,59.92
2018-05-08T02:37:27.499Z,59.19
2018-05-08T02:38:07.957Z,59.47
2018-05-08T02:38:48.454Z,59.28
2018-05-08T02:39:28.909Z,59.38
2018-05-08T02:40:09.411Z,59.09
2018-05-08T02:40:49.881Z,59.38
2018-05-08T02:41:30.429Z,59.38
2018-05-08T02:42:10.867Z,58.8
2018-05-08T02:42:51.330Z,59.19
2018-05-08T02:43:31.855Z,58.99
2018-05-08T02:44:12.319Z,59.47
2018-05-08T02:44:52.817Z,58.99
2018-05-08T02:45:33.300Z,58.89
2018-05-08T02:46:13.804Z,58.99
2018-05-08T02:46:54.274Z,58.99
2018-05-08T02:47:34.732Z,58.13
2018-05-08T02:48:15.239Z,58.13
2018-05-08T02:48:55.718Z,58.22
2018-05-08T02:49:36.202Z,58.13
2018-05-08T02:50:16.660Z,58.42
2018-05-08T02:50:57.166Z,59.09
2018-05-08T02:51:37.683Z,59.09
2018-05-08T02:52:18.126Z,58.7
2018-05-08T02:52:58.615Z,58.42
2018-05-08T02:53:39.121Z,58.7
2018-05-08T02:54:19.623Z,58.03
2018-05-08T02:55:00.079Z,58.22
2018-05-08T02:55:40.568Z,57.93
2018-05-08T02:56:21.061Z,58.29
2018-05-08T02:57:01.550Z,58.03
2018-05-08T02:57:42.024Z,58.32
2018-05-08T02:58:22.551Z,58.22
2018-05-08T02:59:02.995Z,57.84
2018-05-08T02:59:43.454Z,57.84
2018-05-08T03:00:23.990Z,58.03
2018-05-08T03:01:04.423Z,57.93
2018-05-08T03:01:44.926Z,58.13
2018-05-08T03:02:25.417Z,58.61
2018-05-08T03:03:05.901Z,58.03
2018-05-08T03:03:46.416Z,57.93
2018-05-08T03:04:26.856Z,58.13
2018-05-08T03:05:07.349Z,57.93
2018-05-08T03:05:47.886Z,58
2018-05-08T03:06:28.354Z,58.42
2018-05-08T03:07:08.853Z,58.03
2018-05-08T03:07:49.342Z,58.29
2018-05-08T03:08:29.840Z,58.96
2018-05-08T03:09:10.295Z,58.87
2018-05-08T03:09:50.795Z,58.96
2018-05-08T03:10:31.268Z,58.8
2018-05-08T03:11:11.740Z,58.99
2018-05-08T03:11:52.228Z,59.06
2018-05-08T03:12:32.770Z,58.87
2018-05-08T03:13:13.199Z,58.96
2018-05-08T03:13:53.694Z,59.16
2018-05-08T03:14:34.224Z,59.34
2018-05-08T03:15:14.689Z,58.87
2018-05-08T03:15:55.151Z,58.96
2018-05-08T03:16:35.679Z,58.87
2018-05-08T03:17:16.120Z,59.34
2018-05-08T03:17:56.638Z,59.16
2018-05-08T03:18:37.146Z,59.34
2018-05-08T03:19:17.572Z,59.06
2018-05-08T03:19:58.110Z,59.06
2018-05-08T03:20:38.580Z,58.96
2018-05-08T03:21:19.122Z,58.96
2018-05-08T03:21:59.596Z,59.16
2018-05-08T03:22:40.091Z,59.44
2018-05-08T03:23:20.587Z,59.92
2018-05-08T03:24:01.061Z,59.25
2018-05-08T03:24:41.542Z,59.34
2018-05-08T03:25:22.013Z,59.25
2018-05-08T03:26:02.535Z,59.25
2018-05-08T03:26:43.037Z,59.54
2018-05-08T03:27:23.547Z,59.16
2018-05-08T03:28:04.038Z,59.25
2018-05-08T03:28:44.523Z,59.44
2018-05-08T03:29:24.981Z,59.64
2018-05-08T03:30:05.478Z,59.25
2018-05-08T03:30:45.935Z,59.34
2018-05-08T03:31:26.443Z,59.06
2018-05-08T03:32:06.946Z,59.16
2018-05-08T03:32:47.387Z,59.25
2018-05-08T03:33:27.886Z,59.44
2018-05-08T03:34:08.442Z,59.06
2018-05-08T03:34:48.907Z,59.44
2018-05-08T03:35:29.410Z,59.64
2018-05-08T03:36:09.887Z,59.25
2018-05-08T03:36:50.363Z,59.54
2018-05-08T03:37:31.060Z,59.64
2018-05-08T03:38:11.411Z,59.25
2018-05-08T03:38:51.897Z,59.64
2018-05-08T03:39:32.365Z,59.34
2018-05-08T03:40:12.881Z,59.16
2018-05-08T03:40:53.318Z,59.54
2018-05-08T03:41:33.835Z,59.44
2018-05-08T03:42:14.298Z,59.16
2018-05-08T03:42:54.814Z,59.25
2018-05-08T03:43:35.504Z,59.25
2018-05-08T03:44:15.856Z,59.34
2018-05-08T03:44:56.328Z,58.96
2018-05-08T03:45:36.781Z,59.16
2018-05-08T03:46:17.303Z,59.54
2018-05-08T03:46:57.777Z,59.54
2018-05-08T03:47:38.263Z,59.83
2018-05-08T03:48:18.752Z,60.11
2018-05-08T03:48:59.225Z,59.92
2018-05-08T03:49:39.713Z,60.02
2018-05-08T03:50:20.182Z,60.21
2018-05-08T03:51:00.667Z,60.5
2018-05-08T03:51:41.213Z,60.21
2018-05-08T03:52:21.700Z,60.4
2018-05-08T03:53:02.415Z,60.11
2018-05-08T03:53:42.898Z,60.21
2018-05-08T03:54:23.365Z,60.31
2018-05-08T03:55:03.904Z,60.18
2018-05-08T03:55:44.401Z,60.38
2018-05-08T03:56:24.873Z,60.18
2018-05-08T03:57:05.303Z,60.02
2018-05-08T03:57:45.855Z,60.31
2018-05-08T03:58:26.333Z,60.18
2018-05-08T03:59:06.780Z,60.08
2018-05-08T03:59:47.288Z,60.57
2018-05-08T04:00:27.810Z,60.28
2018-05-08T04:01:08.276Z,60.28
2018-05-08T04:01:48.743Z,60.18
2018-05-08T04:02:29.249Z,60.28
2018-05-08T04:03:09.760Z,60.38
2018-05-08T04:03:50.215Z,60.28
2018-05-08T04:04:30.672Z,60.28
2018-05-08T04:05:11.210Z,60.28
2018-05-08T04:05:51.836Z,59.99
2018-05-08T04:06:32.345Z,60.08
2018-05-08T04:07:12.830Z,60.08
2018-05-08T04:07:53.306Z,60.28
2018-05-08T04:08:33.788Z,60.18
2018-05-08T04:09:14.281Z,60.38
2018-05-08T04:09:54.778Z,60.28
2018-05-08T04:10:35.326Z,60.18
2018-05-08T04:11:15.729Z,59.89
2018-05-08T04:11:56.248Z,60.18
2018-05-08T04:12:36.729Z,60.28
2018-05-08T04:13:17.256Z,59.89
2018-05-08T04:13:58.138Z,59.89
2018-05-08T04:14:38.270Z,59.89
2018-05-08T04:15:18.742Z,59.99
2018-05-08T04:15:59.221Z,60.18
2018-05-08T04:16:39.720Z,59.89
2018-05-08T04:17:20.212Z,59.99
2018-05-08T04:18:00.751Z,59.89
2018-05-08T04:18:41.194Z,60.18
2018-05-08T04:19:21.672Z,60.28
2018-05-08T04:20:02.198Z,60.28
2018-05-08T04:20:42.726Z,60.18
2018-05-08T04:21:23.171Z,60.08
2018-05-08T04:22:03.707Z,59.89
2018-05-08T04:22:44.205Z,60.18
2018-05-08T04:23:24.741Z,60.38
2018-05-08T04:24:05.183Z,59.8
2018-05-08T04:24:45.858Z,59.99
2018-05-08T04:25:26.301Z,60.18
2018-05-08T04:26:06.832Z,59.86
2018-05-08T04:26:47.314Z,60.28
2018-05-08T04:27:27.771Z,60.18
2018-05-08T04:28:08.373Z,59.61
2018-05-08T04:28:48.829Z,59.89
2018-05-08T04:29:29.367Z,59.89
2018-05-08T04:30:09.833Z,59.99
2018-05-08T04:30:50.325Z,59.89
2018-05-08T04:31:30.834Z,59.58
2018-05-08T04:32:11.299Z,60.08
2018-05-08T04:32:51.756Z,60.08
2018-05-08T04:33:32.281Z,60.28
2018-05-08T04:34:12.936Z,60.38
2018-05-08T04:34:53.417Z,60.15
2018-05-08T04:35:33.851Z,60.05
2018-05-08T04:37:31.915Z,60.18
2018-05-08T04:38:12.409Z,59.51
2018-05-08T04:38:52.914Z,59.61
2018-05-08T04:39:33.477Z,60.25
2018-05-08T04:40:13.995Z,60.28
2018-05-08T04:40:54.423Z,60.38
2018-05-08T04:41:34.927Z,60.08
2018-05-08T04:42:15.436Z,59.7
2018-05-08T04:42:55.921Z,60.08
2018-05-08T04:43:36.453Z,59.99
2018-05-08T04:44:16.927Z,59.7
2018-05-08T04:44:57.420Z,59.99
2018-05-08T04:45:37.911Z,59.99
2018-05-08T04:46:18.418Z,59.51
2018-05-08T04:46:58.921Z,60.18
2018-05-08T04:47:40.215Z,59.61
2018-05-08T04:48:20.757Z,60.08
2018-05-08T04:49:04.235Z,59.61
2018-05-08T04:49:43.180Z,59.99
2018-05-08T04:50:23.726Z,59.99
2018-05-08T04:51:04.215Z,59.89
2018-05-08T04:51:44.709Z,59.89
2018-05-08T04:52:25.207Z,60.18
2018-05-08T04:53:05.714Z,59.51
2018-05-08T04:53:46.186Z,59.32
2018-05-08T04:54:26.653Z,59.32
2018-05-08T04:55:07.235Z,59.8
2018-05-08T04:55:47.707Z,60.38
2018-05-08T04:56:28.091Z,59.51
2018-05-08T04:57:08.633Z,59.32
2018-05-08T04:57:49.140Z,59.51
2018-05-08T04:58:29.777Z,59.32
2018-05-08T04:59:10.543Z,59.8
2018-05-08T04:59:51.073Z,59.89
2018-05-08T05:00:31.527Z,59.89
2018-05-08T05:01:12.026Z,59.99
2018-05-08T05:01:52.559Z,59.7
2018-05-08T05:02:33.065Z,60.28
2018-05-08T05:03:13.569Z,59.8
2018-05-08T05:03:54.186Z,60.18
2018-05-08T05:04:34.666Z,60.38
2018-05-08T05:05:15.285Z,59.99
2018-05-08T05:05:55.935Z,60.08
2018-05-08T05:06:36.495Z,59.99
2018-05-08T05:07:16.966Z,60.08
2018-05-08T05:07:57.526Z,60.08
2018-05-08T05:08:38.113Z,59.51
2018-05-08T05:09:18.622Z,59.41
2018-05-08T05:09:59.143Z,59.12
2018-05-08T05:10:39.593Z,59.41
2018-05-08T05:11:20.081Z,59.22
2018-05-08T05:12:00.680Z,60.38
2018-05-08T05:12:41.206Z,67.47
2018-05-08T05:13:21.618Z,70.8
2018-05-08T05:14:02.093Z,75.82
2018-05-08T05:14:42.572Z,74.1
2018-05-08T05:15:23.065Z,74.87
2018-05-08T05:16:04.235Z,72.75
2018-05-08T05:16:44.844Z,76.4
2018-05-08T05:17:25.193Z,73.72
2018-05-08T05:18:05.689Z,76.98
2018-05-08T05:18:46.184Z,77.17
2018-05-08T05:19:26.693Z,72.56
2018-05-08T05:20:07.190Z,75.54
2018-05-08T05:20:47.677Z,76.31
2018-05-08T05:21:28.145Z,70.36
2018-05-08T05:22:08.641Z,65.08
2018-05-08T05:22:49.152Z,71.31
2018-05-08T05:23:29.724Z,73.81
2018-05-08T05:24:10.141Z,72.95
2018-05-08T05:24:50.668Z,68.44
2018-05-08T05:25:31.205Z,69.68
2018-05-08T05:26:11.692Z,71.31
2018-05-08T05:26:52.210Z,70.93
2018-05-08T05:27:32.693Z,73.14
2018-05-08T05:28:13.188Z,69.49
2018-05-08T05:28:53.617Z,65.27
2018-05-08T05:29:34.119Z,68.24
2018-05-08T05:30:14.614Z,70.74
2018-05-08T05:30:55.102Z,66.9
2018-05-08T05:31:35.621Z,69.68
2018-05-08T05:32:16.056Z,71.03
2018-05-08T05:32:56.606Z,68.24
2018-05-08T05:33:37.082Z,66.33
2018-05-08T05:34:17.618Z,65.56
2018-05-08T05:34:58.076Z,68.91
2018-05-08T05:35:38.669Z,65.36
2018-05-08T05:36:19.071Z,63.83
2018-05-08T05:36:59.630Z,67.09
2018-05-08T05:37:40.099Z,65.75
2018-05-08T05:38:20.575Z,69.49
2018-05-08T05:39:01.092Z,70.93
2018-05-08T05:39:41.572Z,68.34
2018-05-08T05:40:22.170Z,64.05
2018-05-08T05:41:02.617Z,62.9
2018-05-08T05:41:43.093Z,62.81
2018-05-08T05:42:23.612Z,66.46
2018-05-08T05:43:04.072Z,65.2
2018-05-08T05:43:44.545Z,64.37
2018-05-08T05:44:25.065Z,62.93
2018-05-08T05:45:05.579Z,63.15
2018-05-08T05:45:46.101Z,62.68
2018-05-08T05:46:26.534Z,62.9
2018-05-08T05:47:07.047Z,67.65
2018-05-08T05:47:47.513Z,64.28
2018-05-08T05:48:28.012Z,60.81
2018-05-08T05:49:08.505Z,60.33
2018-05-08T05:49:48.982Z,66.97
2018-05-08T05:50:29.490Z,62.64
2018-05-08T05:51:09.969Z,60.33
2018-05-08T05:51:50.417Z,58.22
2018-05-08T05:52:30.944Z,60.33
2018-05-08T05:53:11.509Z,62.57
2018-05-08T05:53:51.877Z,59.47
2018-05-08T05:54:32.388Z,56.99
2018-05-08T05:55:12.890Z,58.92
2018-05-08T05:55:53.426Z,61.49
2018-05-08T05:56:33.878Z,59.66
2018-05-08T05:57:14.390Z,68.41
2018-05-08T05:57:54.890Z,73.03
2018-05-08T05:58:35.350Z,65.63
2018-05-08T05:59:15.878Z,70.43
2018-05-08T05:59:56.304Z,68.26
2018-05-08T06:00:36.795Z,71.34
2018-05-08T06:01:17.286Z,68.64
2018-05-08T06:01:57.799Z,62.57
2018-05-08T06:02:38.292Z,68.35
2018-05-08T06:03:18.754Z,67
2018-05-08T06:03:59.280Z,71.95
2018-05-08T06:04:39.794Z,66.46
2018-05-08T06:05:20.246Z,61.16
2018-05-08T06:06:00.734Z,64.15
2018-05-08T06:06:41.208Z,66.59
2018-05-08T06:07:21.673Z,63.31
2018-05-08T06:08:02.213Z,60.32
2018-05-08T06:08:42.641Z,59.17
2018-05-08T06:09:23.149Z,68.23
2018-05-08T06:10:03.670Z,60.52
2018-05-08T06:10:44.124Z,71.12
2018-05-08T06:11:24.579Z,63.98
2018-05-08T06:12:05.094Z,66.39
2018-05-08T06:12:45.622Z,73.43
2018-05-08T06:13:26.066Z,68.32
2018-05-08T06:14:06.616Z,60.49
2018-05-08T06:14:47.091Z,63.57
2018-05-08T06:15:27.581Z,65.78
2018-05-08T06:16:08.064Z,62.03
2018-05-08T06:16:48.533Z,60
2018-05-08T06:17:29.059Z,65.17
2018-05-08T06:18:09.528Z,61.9
2018-05-08T06:18:50.039Z,59.01
2018-05-08T06:19:30.493Z,57.5
2018-05-08T06:20:10.993Z,62.77
2018-05-08T06:20:51.436Z,65.46
2018-05-08T06:21:31.967Z,64.31
2018-05-08T06:22:12.493Z,64.89
2018-05-08T06:22:52.956Z,63.44
2018-05-08T06:23:33.466Z,63.41
2018-05-08T06:24:13.978Z,64.37
2018-05-08T06:24:54.460Z,63.22
2018-05-08T06:25:34.958Z,60.91
2018-05-08T06:26:15.443Z,59.08
2018-05-08T06:26:55.892Z,59.4
2018-05-08T06:27:36.423Z,62.77
2018-05-08T06:28:16.882Z,60.94
2018-05-08T06:28:57.353Z,59.59
2018-05-08T06:29:37.898Z,61.9
2018-05-08T06:30:18.404Z,62.29
2018-05-08T06:30:58.887Z,59.88
2018-05-08T06:31:39.338Z,57.95
2018-05-08T06:32:19.871Z,57.67
2018-05-08T06:33:00.348Z,59.01
2018-05-08T06:33:40.824Z,60.55
2018-05-08T06:34:21.308Z,64.98
2018-05-08T06:35:01.952Z,60.46
2018-05-08T06:35:42.424Z,59.2
2018-05-08T06:36:22.882Z,57.47
2018-05-08T06:37:03.372Z,58.44
2018-05-08T06:37:43.886Z,59.11
2018-05-08T06:38:24.352Z,57.47
2018-05-08T06:39:04.887Z,60.75
2018-05-08T06:39:45.412Z,59.33
2018-05-08T06:40:25.885Z,58.27
2018-05-08T06:41:06.358Z,59.62
2018-05-08T06:41:46.836Z,60.2
2018-05-08T06:42:27.398Z,60.39
2018-05-08T06:43:07.872Z,59.45
2018-05-08T06:43:48.447Z,56.37
2018-05-08T06:44:28.917Z,55.6
2018-05-08T06:45:09.392Z,60.42
2018-05-08T06:45:49.870Z,58.2
2018-05-08T06:46:30.390Z,58.2
2018-05-08T06:47:10.838Z,59.45
2018-05-08T06:47:51.349Z,57.24
2018-05-08T06:48:31.798Z,64.02
2018-05-08T06:49:12.298Z,64.11
2018-05-08T06:49:52.781Z,56.98
2018-05-08T06:50:33.226Z,61.22
2018-05-08T06:51:13.731Z,58.04
2018-05-08T06:51:54.222Z,54.54
2018-05-08T06:52:34.676Z,54.47
2018-05-08T06:53:15.192Z,54.96
2018-05-08T06:53:55.701Z,54.76
2018-05-08T06:54:36.186Z,55.92
2018-05-08T06:55:16.682Z,55.92
2018-05-08T06:55:57.183Z,54.96
2018-05-08T06:56:37.659Z,54.5
2018-05-08T06:57:18.171Z,54.57
2018-05-08T06:57:58.924Z,55.27
2018-05-08T06:58:40.992Z,60.58
2018-05-08T06:59:21.451Z,59.03
2018-05-08T07:00:01.963Z,54.6
2018-05-08T07:00:42.585Z,55.46
2018-05-08T07:01:23.151Z,58.1
2018-05-08T07:02:03.685Z,58
2018-05-08T07:02:44.113Z,54.91
2018-05-08T07:03:27.559Z,59.23
2018-05-08T07:04:09.019Z,59.64
2018-05-08T07:04:49.674Z,54.79
2018-05-08T07:05:30.193Z,52.69
2018-05-08T07:06:10.695Z,58.48
2018-05-08T07:06:51.169Z,58.29
2018-05-08T07:07:31.658Z,59.35
2018-05-08T07:08:12.199Z,57.71
2018-05-08T07:08:52.685Z,60.38
2018-05-08T07:09:33.177Z,59.61
2018-05-08T07:10:13.646Z,54.4
2018-05-08T07:10:54.195Z,54.6
2018-05-08T07:11:34.579Z,54.02
2018-05-08T07:12:15.100Z,56.24
2018-05-08T07:12:55.602Z,54.43
2018-05-08T07:13:36.085Z,57.71
2018-05-08T07:14:16.579Z,53.63
2018-05-08T07:14:57.098Z,54.79
2018-05-08T07:15:37.790Z,54.53
2018-05-08T07:16:18.300Z,55.01
2018-05-08T07:16:58.665Z,54.62
2018-05-08T07:17:39.558Z,53.17
2018-05-08T07:18:20.198Z,53.56
2018-05-08T07:19:00.694Z,53.27
2018-05-08T07:19:41.186Z,52.4
2018-05-08T07:20:21.785Z,55.78
2018-05-08T07:21:02.172Z,55.59
2018-05-08T07:21:42.672Z,54.75
2018-05-08T07:22:23.205Z,54.33
2018-05-08T07:23:03.758Z,53.85
2018-05-08T07:23:44.344Z,54.72
2018-05-08T07:24:24.817Z,53.75
2018-05-08T07:25:05.301Z,52.5
2018-05-08T07:25:45.805Z,54.43
2018-05-08T07:26:26.308Z,58.29
2018-05-08T07:27:07.301Z,59.45
2018-05-08T07:27:47.675Z,56.74
2018-05-08T07:28:28.161Z,56.26
2018-05-08T07:29:08.674Z,55.98
2018-05-08T07:29:49.221Z,59.28
2018-05-08T07:30:29.768Z,56.77
2018-05-08T07:31:12.271Z,62.18
2018-05-08T07:31:50.764Z,57.93
2018-05-08T07:32:31.412Z,56.2
2018-05-08T07:33:11.881Z,55.2
2018-05-08T07:33:52.402Z,57.16
2018-05-08T07:34:32.877Z,53.11
2018-05-08T07:35:13.440Z,52.62
2018-05-08T07:35:54.019Z,55.13
2018-05-08T07:36:34.475Z,57.64
2018-05-08T07:37:18.709Z,54.55
2018-05-08T07:37:59.224Z,56.13
2018-05-08T07:38:39.756Z,57.87
2018-05-08T07:39:20.410Z,59.12
2018-05-08T07:40:00.946Z,64.24
2018-05-08T07:40:41.406Z,61.15
2018-05-08T07:41:22.166Z,59.41
2018-05-08T07:42:02.772Z,54.87
2018-05-08T07:42:43.246Z,56.03
2018-05-08T07:43:23.703Z,58.25
2018-05-08T07:44:04.765Z,65.59
2018-05-08T07:44:47.064Z,58.15
2018-05-08T07:45:28.479Z,59.41
2018-05-08T07:46:08.891Z,55.07
2018-05-08T07:46:49.527Z,59.51
2018-05-08T07:47:30.355Z,62.98
2018-05-08T07:48:11.409Z,59.31
2018-05-08T07:48:51.895Z,57.67
2018-05-08T07:49:32.459Z,57.77
2018-05-08T07:50:13.007Z,61.92
2018-05-08T07:50:53.497Z,56.71
2018-05-08T07:51:33.950Z,58.25
2018-05-08T07:52:14.424Z,54.39
2018-05-08T07:52:55.307Z,52.84
2018-05-08T07:53:35.916Z,52.07
2018-05-08T07:54:16.414Z,54.29
2018-05-08T07:54:56.908Z,56.03
2018-05-08T07:55:37.367Z,61.44
2018-05-08T07:56:17.880Z,62.02
2018-05-08T07:56:58.371Z,55.65
2018-05-08T07:57:38.964Z,55.42
2018-05-08T07:58:19.363Z,53.52
2018-05-08T07:58:59.923Z,61.8
2018-05-08T07:59:40.396Z,56.39
2018-05-08T08:00:20.908Z,56.9
2018-05-08T08:01:01.462Z,57.96
2018-05-08T08:01:41.896Z,58.03
2018-05-08T08:02:22.358Z,62.21
2018-05-08T08:03:02.866Z,57.93
2018-05-08T08:03:43.402Z,55.45
2018-05-08T08:04:23.804Z,55.55
2018-05-08T08:05:04.302Z,54.97
2018-05-08T08:05:44.799Z,51.39
2018-05-08T08:06:25.501Z,50.31
2018-05-08T08:07:05.955Z,52.43
2018-05-08T08:07:46.415Z,53.39
2018-05-08T08:08:26.909Z,52.04
2018-05-08T08:09:07.426Z,55.71
2018-05-08T08:09:47.896Z,61.99
2018-05-08T08:10:28.471Z,55.71
2018-05-08T08:11:09.003Z,52.04
2018-05-08T08:11:49.429Z,53.49
2018-05-08T08:12:29.961Z,51.85
2018-05-08T08:13:10.610Z,51.27
2018-05-08T08:13:51.156Z,54.55
2018-05-08T08:14:31.795Z,58.9
2018-05-08T08:15:12.373Z,56.77
2018-05-08T08:15:53.306Z,59.28
2018-05-08T08:16:33.992Z,63.24
2018-05-08T08:17:14.261Z,67.49
2018-05-08T08:17:54.802Z,65.75
2018-05-08T08:18:35.417Z,65.66
2018-05-08T08:19:15.877Z,61.31
2018-05-08T08:19:56.471Z,56.68
2018-05-08T08:20:36.971Z,65.37
2018-05-08T08:21:17.435Z,63.82
2018-05-08T08:21:57.901Z,59.86
2018-05-08T08:22:38.420Z,60.64
2018-05-08T08:23:18.910Z,58.12
2018-05-08T08:23:59.372Z,53.85
2018-05-08T08:24:39.959Z,59.64
2018-05-08T08:25:20.437Z,64.4
2018-05-08T08:26:00.962Z,64.01
2018-05-08T08:26:41.451Z,65.47
2018-05-08T08:27:21.965Z,57.84
2018-05-08T08:28:02.792Z,54.84
2018-05-08T08:28:43.337Z,60.54
2018-05-08T08:29:23.829Z,56.87
2018-05-08T08:30:04.277Z,54.55
2018-05-08T08:30:44.789Z,52.72
2018-05-08T08:31:25.297Z,53.3
2018-05-08T08:32:05.768Z,60.25
2018-05-08T08:32:46.264Z,62.66
2018-05-08T08:33:26.761Z,61.89
2018-05-08T08:34:07.251Z,60.44
2018-05-08T08:34:47.761Z,58.7
2018-05-08T08:35:28.393Z,56.77
2018-05-08T08:36:08.835Z,62.66
2018-05-08T08:36:49.401Z,58.03
2018-05-08T08:37:29.826Z,63.05
2018-05-08T08:38:10.319Z,58.03
2018-05-08T08:38:50.829Z,54.75
2018-05-08T08:39:31.281Z,62.18
2018-05-08T08:40:11.794Z,56.1
2018-05-08T08:40:52.298Z,54.84
2018-05-08T08:41:32.747Z,58.03
2018-05-08T08:42:13.241Z,56.58
2018-05-08T08:42:53.928Z,54.46
2018-05-08T08:43:34.448Z,57.35
2018-05-08T08:44:14.937Z,56.96